createdAt,value
2023-01-26T00:02:07.108Z,22.97
2023-01-26T00:04:35.208Z,22.98
2023-01-26T00:07:05.173Z,22.98
2023-01-26T00:09:34.886Z,22.99
2023-01-26T00:12:05.484Z,22.97
2023-01-26T00:14:50.620Z,22.95
2023-01-26T00:17:26.928Z,22.94
2023-01-26T00:19:56.412Z,22.98
2023-01-26T00:22:26.990Z,22.95
2023-01-26T00:24:54.641Z,22.92
2023-01-26T00:27:25.349Z,22.99
2023-01-26T00:29:55.885Z,23.03
2023-01-26T00:32:23.685Z,23.07
2023-01-26T00:34:51.247Z,23.10
2023-01-26T00:37:21.645Z,23.09
2023-01-26T00:39:54.551Z,23.01
2023-01-26T00:42:26.721Z,22.97
2023-01-26T00:44:54.295Z,22.98
2023-01-26T00:47:22.072Z,22.93
2023-01-26T00:49:52.829Z,22.91
2023-01-26T00:52:27.423Z,22.95
2023-01-26T00:54:55.132Z,22.85
2023-01-26T00:57:25.244Z,22.86
2023-01-26T00:59:58.744Z,22.80
2023-01-26T01:02:26.376Z,22.81
2023-01-26T01:04:56.420Z,22.78
2023-01-26T01:07:24.678Z,22.78
2023-01-26T01:09:52.176Z,22.78
2023-01-26T01:12:20.017Z,22.80
2023-01-26T01:14:51.070Z,22.79
2023-01-26T01:17:21.209Z,22.79
2023-01-26T01:19:48.719Z,22.78
2023-01-26T01:22:19.401Z,22.80
2023-01-26T01:24:48.025Z,22.79
2023-01-26T01:27:18.055Z,22.77
2023-01-26T01:29:45.653Z,22.79
2023-01-26T01:32:13.041Z,22.74
2023-01-26T01:34:47.193Z,22.71
2023-01-26T01:37:18.023Z,22.70
2023-01-26T01:39:49.029Z,22.72
2023-01-26T01:42:18.589Z,22.71
2023-01-26T01:45:33.209Z,22.71
2023-01-26T01:48:05.162Z,22.70
2023-01-26T01:50:40.104Z,22.73
2023-01-26T01:53:13.014Z,22.69
2023-01-26T01:55:41.370Z,22.71
2023-01-26T01:58:09.730Z,22.70
2023-01-26T02:00:44.810Z,22.67
2023-01-26T02:03:14.987Z,22.69
2023-01-26T02:05:48.780Z,22.71
2023-01-26T02:08:19.658Z,22.86
2023-01-26T02:10:50.412Z,22.94
2023-01-26T02:13:19.646Z,23.00
2023-01-26T02:15:51.696Z,23.15
2023-01-26T02:18:22.027Z,23.21
2023-01-26T02:21:11.526Z,23.27
2023-01-26T02:23:58.491Z,23.33
2023-01-26T02:26:36.583Z,23.45
2023-01-26T02:29:09.583Z,23.47
2023-01-26T02:31:43.872Z,23.49
2023-01-26T02:34:14.040Z,23.47
2023-01-26T02:36:41.761Z,23.55
2023-01-26T02:39:15.326Z,23.64
2023-01-26T02:42:16.665Z,23.82
2023-01-26T02:44:47.227Z,23.83
2023-01-26T02:47:21.900Z,23.83
2023-01-26T02:49:52.517Z,23.82
2023-01-26T02:52:31.055Z,23.85
2023-01-26T02:55:26.217Z,23.85
2023-01-26T02:57:59.445Z,23.81
2023-01-26T03:00:34.915Z,23.86
2023-01-26T03:03:12.297Z,23.90
2023-01-26T03:05:42.930Z,23.90
2023-01-26T03:08:10.368Z,23.90
2023-01-26T03:10:47.110Z,23.83
2023-01-26T03:13:18.106Z,23.85
2023-01-26T03:15:52.788Z,23.86
2023-01-26T03:18:44.243Z,23.87
2023-01-26T03:21:35.855Z,23.86
2023-01-26T03:24:23.171Z,23.90
2023-01-26T03:27:13.117Z,23.89
2023-01-26T03:29:50.253Z,23.84
2023-01-26T03:32:19.853Z,23.70
2023-01-26T03:34:47.945Z,23.56
2023-01-26T03:37:15.652Z,23.50
2023-01-26T03:40:13.220Z,23.38
2023-01-26T03:42:59.848Z,23.28
2023-01-26T03:45:50.932Z,23.18
2023-01-26T03:48:39.681Z,23.13
2023-01-26T03:51:26.183Z,23.07
2023-01-26T03:54:12.783Z,23.00
2023-01-26T03:56:40.248Z,22.98
2023-01-26T03:59:15.565Z,22.96
2023-01-26T04:02:04.969Z,22.93
2023-01-26T04:04:52.044Z,22.93
2023-01-26T04:07:44.371Z,22.88
2023-01-26T04:10:15.259Z,22.86
2023-01-26T04:12:46.708Z,22.83
2023-01-26T04:15:38.961Z,22.82
2023-01-26T04:18:26.858Z,22.79
2023-01-26T04:21:16.852Z,22.75
2023-01-26T04:23:45.413Z,22.73
2023-01-26T04:26:14.045Z,22.71
2023-01-26T04:28:42.112Z,22.70
2023-01-26T04:31:14.950Z,22.65
2023-01-26T04:33:45.793Z,22.65
2023-01-26T04:36:16.052Z,22.62
2023-01-26T04:38:49.561Z,22.64
2023-01-26T04:41:22.565Z,22.68
2023-01-26T04:44:01.960Z,22.72
2023-01-26T04:46:36.235Z,22.71
2023-01-26T04:49:06.295Z,22.72
2023-01-26T04:51:38.965Z,22.68
2023-01-26T04:54:09.593Z,22.63
2023-01-26T04:56:40.898Z,22.57
2023-01-26T04:59:11.365Z,22.54
2023-01-26T05:01:41.634Z,22.53
2023-01-26T05:04:11.899Z,22.52
2023-01-26T05:06:44.743Z,22.52
2023-01-26T05:09:15.379Z,22.53
2023-01-26T05:11:48.296Z,22.54
2023-01-26T05:14:39.282Z,22.60
2023-01-26T05:17:30.131Z,22.63
2023-01-26T05:20:14.345Z,22.65
2023-01-26T05:22:59.767Z,22.66
2023-01-26T05:25:30.183Z,22.59
2023-01-26T05:28:07.832Z,22.61
2023-01-26T05:30:38.922Z,22.59
2023-01-26T05:33:10.578Z,22.59
2023-01-26T05:35:41.054Z,22.65
2023-01-26T05:38:10.829Z,22.54
2023-01-26T05:40:41.689Z,22.53
2023-01-26T05:43:12.657Z,22.58
2023-01-26T05:45:40.656Z,22.63
2023-01-26T05:48:09.390Z,22.54
2023-01-26T05:50:42.323Z,22.61
2023-01-26T05:53:22.922Z,22.62
2023-01-26T05:55:51.659Z,22.62
2023-01-26T05:58:22.755Z,22.63
2023-01-26T06:00:51.048Z,22.61
2023-01-26T06:03:31.871Z,22.61
2023-01-26T06:05:59.588Z,22.62
2023-01-26T06:08:37.824Z,22.62
2023-01-26T06:11:34.448Z,22.62
2023-01-26T06:14:20.715Z,22.58
2023-01-26T06:16:50.035Z,22.56
2023-01-26T06:19:19.247Z,22.57
2023-01-26T06:21:53.823Z,22.52
2023-01-26T06:24:23.898Z,22.53
2023-01-26T06:26:53.100Z,22.50
2023-01-26T06:29:20.766Z,22.54
2023-01-26T06:31:53.959Z,22.53
2023-01-26T06:34:22.238Z,22.57
2023-01-26T06:36:49.972Z,22.60
2023-01-26T06:39:27.371Z,22.61
2023-01-26T06:41:57.480Z,22.59
2023-01-26T06:44:27.557Z,22.59
2023-01-26T06:46:59.058Z,22.57
2023-01-26T06:49:26.498Z,22.59
2023-01-26T06:52:16.946Z,22.55
2023-01-26T06:54:53.415Z,22.54
2023-01-26T06:57:39.366Z,22.63
2023-01-26T07:00:44.231Z,22.60
2023-01-26T07:03:16.824Z,22.60
2023-01-26T07:05:50.290Z,22.65
2023-01-26T07:08:20.719Z,22.67
2023-01-26T07:10:52.754Z,22.66
2023-01-26T07:13:23.925Z,22.68
2023-01-26T07:16:03.137Z,22.68
2023-01-26T07:18:38.897Z,22.75
2023-01-26T07:21:12.220Z,22.78
2023-01-26T07:23:43.667Z,22.91
2023-01-26T07:26:12.533Z,23.00
2023-01-26T07:28:45.113Z,23.28
2023-01-26T07:31:18.990Z,23.80
2023-01-26T07:33:54.703Z,24.26
2023-01-26T07:36:22.819Z,24.76
2023-01-26T07:38:52.269Z,24.90
2023-01-26T07:41:23.055Z,25.87
2023-01-26T07:43:54.259Z,26.79
2023-01-26T07:46:25.038Z,27.22
2023-01-26T07:48:53.528Z,27.05
2023-01-26T07:51:23.999Z,26.39
2023-01-26T07:53:54.487Z,25.73
2023-01-26T07:56:27.848Z,25.21
2023-01-26T07:59:03.738Z,24.67
2023-01-26T08:01:34.590Z,24.44
2023-01-26T08:04:07.852Z,24.23
2023-01-26T08:06:41.061Z,24.11
2023-01-26T08:09:14.609Z,23.94
2023-01-26T08:11:48.157Z,23.89
2023-01-26T08:14:20.145Z,23.70
2023-01-26T08:16:51.288Z,23.68
2023-01-26T08:19:28.205Z,23.65
2023-01-26T08:21:57.843Z,23.52
2023-01-26T08:24:29.482Z,23.50
2023-01-26T08:26:57.657Z,23.47
2023-01-26T08:29:28.879Z,23.47
2023-01-26T08:32:01.994Z,23.40
2023-01-26T08:34:39.825Z,23.28
2023-01-26T08:37:15.017Z,23.30
2023-01-26T08:39:48.109Z,23.29
2023-01-26T08:42:22.878Z,23.24
2023-01-26T08:44:53.353Z,23.22
2023-01-26T08:47:26.213Z,23.25
2023-01-26T08:49:56.455Z,23.10
2023-01-26T08:52:30.072Z,23.16
2023-01-26T08:55:01.118Z,23.22
2023-01-26T08:57:32.265Z,23.22
2023-01-26T09:00:03.567Z,23.19
2023-01-26T09:02:32.433Z,23.19
2023-01-26T09:05:05.087Z,23.23
2023-01-26T09:07:36.319Z,23.15
2023-01-26T09:10:07.382Z,23.06
2023-01-26T09:12:41.200Z,23.11
2023-01-26T09:15:14.779Z,23.18
2023-01-26T09:17:49.198Z,23.23
2023-01-26T09:20:22.769Z,23.34
2023-01-26T09:22:55.433Z,23.21
2023-01-26T09:25:23.293Z,23.25
2023-01-26T09:27:53.845Z,23.20
2023-01-26T09:30:21.774Z,23.31
2023-01-26T09:32:49.745Z,23.36
2023-01-26T09:35:18.422Z,23.35
2023-01-26T09:37:52.465Z,23.34
2023-01-26T09:40:54.415Z,23.40
2023-01-26T09:43:41.752Z,23.32
2023-01-26T09:46:25.588Z,23.36
2023-01-26T09:49:11.781Z,23.42
2023-01-26T09:51:46.917Z,23.45
2023-01-26T09:54:32.192Z,23.55
2023-01-26T09:57:12.703Z,23.54
2023-01-26T09:59:53.548Z,23.60
2023-01-26T10:02:40.378Z,23.61
2023-01-26T10:05:37.043Z,23.53
2023-01-26T10:08:21.419Z,23.53
2023-01-26T10:11:03.268Z,23.45
2023-01-26T10:13:34.529Z,23.41
2023-01-26T10:16:06.890Z,23.43
2023-01-26T10:19:23.645Z,23.47
2023-01-26T10:21:53.402Z,23.50
2023-01-26T10:24:25.807Z,23.34
2023-01-26T10:26:58.176Z,23.32
2023-01-26T10:29:26.171Z,23.34
2023-01-26T10:31:55.555Z,23.38
2023-01-26T10:34:31.571Z,23.33
2023-01-26T10:37:21.378Z,23.34
2023-01-26T10:40:12.724Z,23.50
2023-01-26T10:42:53.705Z,23.45
2023-01-26T10:45:28.960Z,23.52
2023-01-26T10:48:34.288Z,23.51
2023-01-26T10:51:25.341Z,23.50
2023-01-26T10:54:19.483Z,23.56
2023-01-26T10:57:02.451Z,23.54
2023-01-26T10:59:40.681Z,23.54
2023-01-26T11:02:23.207Z,23.42
2023-01-26T11:05:16.162Z,23.38
2023-01-26T11:07:49.382Z,23.45
2023-01-26T11:10:27.296Z,23.49
2023-01-26T11:13:14.417Z,23.55
2023-01-26T11:15:45.486Z,23.60
2023-01-26T11:18:49.820Z,23.63
2023-01-26T11:22:01.828Z,23.58
2023-01-26T11:24:45.143Z,23.62
2023-01-26T11:27:20.700Z,23.70
2023-01-26T11:30:28.231Z,23.72
2023-01-26T11:33:13.723Z,23.68
2023-01-26T11:36:03.121Z,23.72
2023-01-26T11:38:42.507Z,23.72
2023-01-26T11:41:50.273Z,23.66
2023-01-26T11:44:29.598Z,23.58
2023-01-26T11:47:20.420Z,23.58
2023-01-26T11:50:06.848Z,23.64
2023-01-26T11:52:58.409Z,23.69
2023-01-26T11:55:47.948Z,23.62
2023-01-26T11:58:39.391Z,23.69
2023-01-26T12:01:20.592Z,23.65
2023-01-26T12:03:58.738Z,23.61
2023-01-26T12:06:45.650Z,23.64
2023-01-26T12:09:52.988Z,23.60
2023-01-26T12:12:49.735Z,23.61
2023-01-26T12:15:32.139Z,23.55
2023-01-26T12:18:17.163Z,23.59
2023-01-26T12:20:55.922Z,23.57
2023-01-26T12:23:47.847Z,23.49
2023-01-26T12:26:19.017Z,23.50
2023-01-26T12:28:57.993Z,23.52
2023-01-26T12:32:00.191Z,23.44
2023-01-26T12:34:35.390Z,23.34
2023-01-26T12:37:32.648Z,23.39
2023-01-26T12:40:49.257Z,23.40
2023-01-26T12:43:38.432Z,23.42
2023-01-26T12:46:12.144Z,23.31
2023-01-26T12:49:08.692Z,23.35
2023-01-26T12:51:53.793Z,23.40
2023-01-26T12:54:49.392Z,23.44
2023-01-26T12:57:27.724Z,23.39
2023-01-26T13:00:35.497Z,23.42
2023-01-26T13:03:17.172Z,23.43
2023-01-26T13:06:23.287Z,23.49
2023-01-26T13:09:29.467Z,23.56
2023-01-26T13:12:00.496Z,23.49
2023-01-26T13:14:43.178Z,23.57
2023-01-26T13:17:19.264Z,23.87
2023-01-26T13:19:46.843Z,24.04
2023-01-26T13:22:23.790Z,24.26
2023-01-26T13:25:14.517Z,24.34
2023-01-26T13:27:59.662Z,24.40
2023-01-26T13:30:47.147Z,24.61
2023-01-26T13:33:30.732Z,24.75
2023-01-26T13:36:15.108Z,24.83
2023-01-26T13:38:50.511Z,24.62
2023-01-26T13:41:27.726Z,24.65
2023-01-26T13:44:14.889Z,24.43
2023-01-26T13:47:03.350Z,24.40
2023-01-26T13:49:40.142Z,24.27
2023-01-26T13:52:18.760Z,24.26
2023-01-26T13:54:57.891Z,24.25
2023-01-26T13:57:34.984Z,24.14
2023-01-26T14:00:06.892Z,24.14
2023-01-26T14:02:38.907Z,24.12
2023-01-26T14:05:22.674Z,24.07
2023-01-26T14:07:54.614Z,24.02
2023-01-26T14:10:28.000Z,24.01
2023-01-26T14:13:01.274Z,23.98
2023-01-26T14:15:35.722Z,23.96
2023-01-26T14:18:21.644Z,23.83
2023-01-26T14:20:52.565Z,23.85
2023-01-26T14:23:25.640Z,23.88
2023-01-26T14:26:29.038Z,23.77
2023-01-26T14:29:03.574Z,23.84
2023-01-26T14:31:33.763Z,23.88
2023-01-26T14:34:14.362Z,23.94
2023-01-26T14:36:42.191Z,23.89
2023-01-26T14:39:26.004Z,23.93
2023-01-26T14:42:00.814Z,24.02
2023-01-26T14:44:31.644Z,24.28
2023-01-26T14:47:13.066Z,24.21
2023-01-26T14:49:47.007Z,24.35
2023-01-26T14:52:31.693Z,24.73
2023-01-26T14:55:13.634Z,24.76
2023-01-26T14:57:44.407Z,24.72
2023-01-26T15:00:27.523Z,25.06
2023-01-26T15:03:01.275Z,25.04
2023-01-26T15:05:42.338Z,25.05
2023-01-26T15:08:29.590Z,25.18
2023-01-26T15:11:18.862Z,25.06
2023-01-26T15:13:55.473Z,25.34
2023-01-26T15:16:25.950Z,25.96
2023-01-26T15:19:06.210Z,25.56
2023-01-26T15:21:44.488Z,25.44
2023-01-26T15:24:18.172Z,25.44
2023-01-26T15:26:46.336Z,25.51
2023-01-26T15:29:32.675Z,26.11
2023-01-26T15:32:01.760Z,26.64
2023-01-26T15:35:06.057Z,26.48
2023-01-26T15:37:41.766Z,26.57
2023-01-26T15:40:20.320Z,26.52
2023-01-26T15:42:52.970Z,26.97
2023-01-26T15:45:33.842Z,27.06
2023-01-26T15:48:07.589Z,26.86
2023-01-26T15:50:41.872Z,26.46
2023-01-26T15:53:20.239Z,26.55
2023-01-26T15:55:52.810Z,27.26
2023-01-26T15:58:23.591Z,27.72
2023-01-26T16:00:54.739Z,26.96
2023-01-26T16:03:27.984Z,27.41
2023-01-26T16:06:07.355Z,28.46
2023-01-26T16:08:43.161Z,28.93
2023-01-26T16:11:15.409Z,29.29
2023-01-26T16:14:02.488Z,29.26
2023-01-26T16:16:32.762Z,31.08
2023-01-26T16:19:04.038Z,30.60
2023-01-26T16:21:39.480Z,29.85
2023-01-26T16:24:15.585Z,29.90
2023-01-26T16:26:43.517Z,28.82
2023-01-26T16:29:14.216Z,28.01
2023-01-26T16:31:50.633Z,28.08
2023-01-26T16:34:24.958Z,27.90
2023-01-26T16:36:56.665Z,27.24
2023-01-26T16:39:28.990Z,27.35
2023-01-26T16:41:58.016Z,26.87
2023-01-26T16:44:28.511Z,26.64
2023-01-26T16:47:00.070Z,26.63
2023-01-26T16:49:35.371Z,26.61
2023-01-26T16:52:13.535Z,26.48
2023-01-26T16:54:51.521Z,26.23
2023-01-26T16:57:27.654Z,26.37
2023-01-26T17:00:00.745Z,26.01
2023-01-26T17:02:41.963Z,26.15
2023-01-26T17:05:28.835Z,25.94
2023-01-26T17:07:59.291Z,25.55
2023-01-26T17:10:33.356Z,25.29
2023-01-26T17:13:05.009Z,25.08
2023-01-26T17:15:39.208Z,24.84
2023-01-26T17:18:12.135Z,24.69
2023-01-26T17:20:52.040Z,24.54
2023-01-26T17:23:28.485Z,24.48
2023-01-26T17:26:06.443Z,24.41
2023-01-26T17:28:34.209Z,24.33
2023-01-26T17:31:17.640Z,24.23
2023-01-26T17:33:55.079Z,24.19
2023-01-26T17:36:26.259Z,24.08
2023-01-26T17:38:57.214Z,24.05
2023-01-26T17:41:28.176Z,24.02
2023-01-26T17:44:01.196Z,23.96
2023-01-26T17:46:31.300Z,23.92
2023-01-26T17:49:01.907Z,23.87
2023-01-26T17:51:29.353Z,23.85
2023-01-26T17:53:59.671Z,23.83
2023-01-26T17:56:33.683Z,23.78
2023-01-26T17:59:03.888Z,23.78
2023-01-26T18:01:34.446Z,23.77
2023-01-26T18:04:04.954Z,23.73
2023-01-26T18:06:35.929Z,23.61
2023-01-26T18:09:06.518Z,23.60
2023-01-26T18:11:36.941Z,23.58
2023-01-26T18:14:09.988Z,23.53
2023-01-26T18:16:38.227Z,23.47
2023-01-26T18:19:14.679Z,23.51
2023-01-26T18:21:42.166Z,23.48
2023-01-26T18:24:10.277Z,23.45
2023-01-26T18:26:41.921Z,23.42
2023-01-26T18:29:14.834Z,23.42
2023-01-26T18:31:45.249Z,23.42
2023-01-26T18:34:13.949Z,23.43
2023-01-26T18:36:44.308Z,23.45
2023-01-26T18:39:18.680Z,23.43
2023-01-26T18:41:48.808Z,23.34
2023-01-26T18:44:18.534Z,23.37
2023-01-26T18:46:47.196Z,23.29
2023-01-26T18:49:14.609Z,23.36
2023-01-26T18:51:50.719Z,23.29
2023-01-26T18:54:24.463Z,23.30
2023-01-26T18:56:52.180Z,23.27
2023-01-26T18:59:25.533Z,23.27
2023-01-26T19:01:55.356Z,23.25
2023-01-26T19:04:26.298Z,23.19
2023-01-26T19:06:53.865Z,23.18
2023-01-26T19:09:26.207Z,23.19
2023-01-26T19:11:54.065Z,23.18
2023-01-26T19:14:24.667Z,23.21
2023-01-26T19:16:56.983Z,23.14
2023-01-26T19:19:31.848Z,23.18
2023-01-26T19:21:59.559Z,23.15
2023-01-26T19:24:27.037Z,23.15
2023-01-26T19:26:56.231Z,23.15
2023-01-26T19:29:23.678Z,23.18
2023-01-26T19:31:57.217Z,23.19
2023-01-26T19:34:25.216Z,23.13
2023-01-26T19:36:52.849Z,23.13
2023-01-26T19:39:20.323Z,23.13
2023-01-26T19:41:50.257Z,23.15
2023-01-26T19:44:18.073Z,23.15
2023-01-26T19:46:48.241Z,23.11
2023-01-26T19:49:21.535Z,23.07
2023-01-26T19:51:53.229Z,23.08
2023-01-26T19:54:30.191Z,23.07
2023-01-26T19:57:03.236Z,23.11
2023-01-26T19:59:35.902Z,23.14
2023-01-26T20:02:12.753Z,23.09
2023-01-26T20:04:45.286Z,23.05
2023-01-26T20:07:15.867Z,23.04
2023-01-26T20:09:51.627Z,23.02
2023-01-26T20:12:20.412Z,23.07
2023-01-26T20:14:53.643Z,23.00
2023-01-26T20:17:24.163Z,22.97
2023-01-26T20:19:57.490Z,23.00
2023-01-26T20:22:33.523Z,22.98
2023-01-26T20:25:07.554Z,22.97
2023-01-26T20:27:41.003Z,22.94
2023-01-26T20:30:15.449Z,22.99
2023-01-26T20:32:47.109Z,22.94
2023-01-26T20:35:18.022Z,22.96
2023-01-26T20:37:46.478Z,22.94
2023-01-26T20:40:19.488Z,22.94
2023-01-26T20:42:52.976Z,22.93
2023-01-26T20:45:20.405Z,22.93
2023-01-26T20:47:54.051Z,22.94
2023-01-26T20:50:27.232Z,22.93
2023-01-26T20:53:00.044Z,22.92
2023-01-26T20:55:33.713Z,22.90
2023-01-26T20:58:00.959Z,22.89
2023-01-26T21:00:36.898Z,22.86
2023-01-26T21:03:07.207Z,22.85
2023-01-26T21:05:37.229Z,22.86
2023-01-26T21:08:04.946Z,22.83
2023-01-26T21:10:38.476Z,22.85
2023-01-26T21:13:09.406Z,22.90
2023-01-26T21:15:36.947Z,22.89
2023-01-26T21:18:04.635Z,22.88
2023-01-26T21:20:34.423Z,22.85
2023-01-26T21:23:07.219Z,22.83
2023-01-26T21:25:34.807Z,22.85
2023-01-26T21:28:02.187Z,22.86
2023-01-26T21:30:32.195Z,22.83
2023-01-26T21:33:05.362Z,22.81
2023-01-26T21:35:36.328Z,22.81
2023-01-26T21:38:10.098Z,22.76
2023-01-26T21:40:38.346Z,22.80
2023-01-26T21:43:09.641Z,22.77
2023-01-26T21:46:09.296Z,22.76
2023-01-26T21:48:42.707Z,22.75
2023-01-26T21:51:31.588Z,22.77
2023-01-26T21:54:03.185Z,22.82
2023-01-26T21:56:32.245Z,22.78
2023-01-26T21:59:04.155Z,22.77
2023-01-26T22:01:42.623Z,22.79
2023-01-26T22:04:17.371Z,22.76
2023-01-26T22:06:48.100Z,22.69
2023-01-26T22:09:19.797Z,22.68
2023-01-26T22:11:50.577Z,22.70
2023-01-26T22:14:28.570Z,22.78
2023-01-26T22:17:00.212Z,22.78
2023-01-26T22:19:30.696Z,22.80
2023-01-26T22:22:06.626Z,22.71
2023-01-26T22:24:42.747Z,22.73
2023-01-26T22:27:10.541Z,22.72
2023-01-26T22:29:49.081Z,22.72
2023-01-26T22:32:19.483Z,22.71
2023-01-26T22:34:47.124Z,22.66
2023-01-26T22:37:15.580Z,22.66
2023-01-26T22:39:49.097Z,22.72
2023-01-26T22:42:24.501Z,22.72
2023-01-26T22:44:57.640Z,22.71
2023-01-26T22:47:28.270Z,22.70
2023-01-26T22:50:04.343Z,22.67
2023-01-26T22:52:35.671Z,22.63
2023-01-26T22:55:08.687Z,22.60
2023-01-26T22:57:42.105Z,22.57
2023-01-26T23:00:12.884Z,22.55
2023-01-26T23:02:45.463Z,22.59
2023-01-26T23:05:15.789Z,22.68
2023-01-26T23:07:46.193Z,22.84
2023-01-26T23:10:16.518Z,22.94
2023-01-26T23:12:51.748Z,23.00
2023-01-26T23:15:19.555Z,23.05
2023-01-26T23:17:54.445Z,23.10
2023-01-26T23:20:22.252Z,23.18
2023-01-26T23:22:50.465Z,23.26
2023-01-26T23:25:38.746Z,23.34
2023-01-26T23:28:09.353Z,23.45
2023-01-26T23:30:37.395Z,23.42
2023-01-26T23:33:11.474Z,23.52
2023-01-26T23:35:41.957Z,23.49
2023-01-26T23:38:13.103Z,23.50
2023-01-26T23:40:45.419Z,23.55
2023-01-26T23:43:17.590Z,23.69
2023-01-26T23:45:55.732Z,23.68
2023-01-26T23:48:26.542Z,23.74
2023-01-26T23:51:01.387Z,23.71
2023-01-26T23:53:30.655Z,23.72
2023-01-26T23:56:08.203Z,23.70
2023-01-26T23:58:40.442Z,23.72
